sensor_id;sensor_type;location;lat;lon;timestamp;temperature;humidity
76537;DHT22;65381;51.254;15.592;2023-02-24T00:02:13;8.30;78.00
76537;DHT22;65381;51.254;15.592;2023-02-24T00:04:41;8.30;77.90
76537;DHT22;65381;51.254;15.592;2023-02-24T00:07:12;8.20;78.00
76537;DHT22;65381;51.254;15.592;2023-02-24T00:09:40;8.20;77.90
76537;DHT22;65381;51.254;15.592;2023-02-24T00:12:13;8.20;77.90
76537;DHT22;65381;51.254;15.592;2023-02-24T00:14:43;8.20;77.90
76537;DHT22;65381;51.254;15.592;2023-02-24T00:17:12;8.20;77.50
76537;DHT22;65381;51.254;15.592;2023-02-24T00:19:43;8.20;77.60
76537;DHT22;65381;51.254;15.592;2023-02-24T00:22:13;8.20;77.60
76537;DHT22;65381;51.254;15.592;2023-02-24T00:24:46;8.20;77.70
76537;DHT22;65381;51.254;15.592;2023-02-24T00:27:14;8.20;77.90
76537;DHT22;65381;51.254;15.592;2023-02-24T00:29:44;8.20;78.00
76537;DHT22;65381;51.254;15.592;2023-02-24T00:32:12;8.20;78.20
76537;DHT22;65381;51.254;15.592;2023-02-24T00:34:41;8.20;78.20
76537;DHT22;65381;51.254;15.592;2023-02-24T00:37:10;8.20;78.20
76537;DHT22;65381;51.254;15.592;2023-02-24T00:39:38;8.20;78.20
76537;DHT22;65381;51.254;15.592;2023-02-24T00:42:10;8.20;78.10
76537;DHT22;65381;51.254;15.592;2023-02-24T00:44:46;8.20;78.20
76537;DHT22;65381;51.254;15.592;2023-02-24T00:47:15;8.20;78.30
76537;DHT22;65381;51.254;15.592;2023-02-24T00:49:44;8.20;78.30
76537;DHT22;65381;51.254;15.592;2023-02-24T00:52:14;8.20;78.40
76537;DHT22;65381;51.254;15.592;2023-02-24T00:54:44;8.10;78.40
76537;DHT22;65381;51.254;15.592;2023-02-24T00:57:13;8.10;78.50
76537;DHT22;65381;51.254;15.592;2023-02-24T00:59:43;8.10;78.60
76537;DHT22;65381;51.254;15.592;2023-02-24T01:02:15;8.10;78.60
76537;DHT22;65381;51.254;15.592;2023-02-24T01:04:43;8.10;78.60
76537;DHT22;65381;51.254;15.592;2023-02-24T01:07:13;8.10;78.60
76537;DHT22;65381;51.254;15.592;2023-02-24T01:09:42;8.10;78.70
76537;DHT22;65381;51.254;15.592;2023-02-24T01:12:11;8.10;78.70
76537;DHT22;65381;51.254;15.592;2023-02-24T01:14:50;8.10;78.70
76537;DHT22;65381;51.254;15.592;2023-02-24T01:17:19;8.10;78.60
76537;DHT22;65381;51.254;15.592;2023-02-24T01:19:49;8.10;78.60
76537;DHT22;65381;51.254;15.592;2023-02-24T01:22:22;8.10;78.70
76537;DHT22;65381;51.254;15.592;2023-02-24T01:24:50;8.10;78.90
76537;DHT22;65381;51.254;15.592;2023-02-24T01:27:18;8.10;79.00
76537;DHT22;65381;51.254;15.592;2023-02-24T01:29:47;8.00;79.20
76537;DHT22;65381;51.254;15.592;2023-02-24T01:32:18;8.00;79.40
76537;DHT22;65381;51.254;15.592;2023-02-24T01:34:50;8.00;79.40
76537;DHT22;65381;51.254;15.592;2023-02-24T01:37:19;8.00;79.50
76537;DHT22;65381;51.254;15.592;2023-02-24T01:39:48;8.10;79.50
76537;DHT22;65381;51.254;15.592;2023-02-24T01:42:19;8.10;79.60
76537;DHT22;65381;51.254;15.592;2023-02-24T01:47:18;8.00;79.70
76537;DHT22;65381;51.254;15.592;2023-02-24T01:49:51;8.00;79.80
76537;DHT22;65381;51.254;15.592;2023-02-24T01:52:27;8.00;79.80
76537;DHT22;65381;51.254;15.592;2023-02-24T01:55:06;8.00;79.90
76537;DHT22;65381;51.254;15.592;2023-02-24T01:57:37;8.00;79.80
76537;DHT22;65381;51.254;15.592;2023-02-24T02:00:09;8.00;79.70
76537;DHT22;65381;51.254;15.592;2023-02-24T02:02:44;8.00;79.80
76537;DHT22;65381;51.254;15.592;2023-02-24T02:05:13;8.00;79.80
76537;DHT22;65381;51.254;15.592;2023-02-24T02:07:44;8.00;79.80
76537;DHT22;65381;51.254;15.592;2023-02-24T02:10:12;8.00;79.90
76537;DHT22;65381;51.254;15.592;2023-02-24T02:12:42;8.00;80.00
76537;DHT22;65381;51.254;15.592;2023-02-24T02:15:16;8.00;80.00
76537;DHT22;65381;51.254;15.592;2023-02-24T02:37:52;8.00;80.30
76537;DHT22;65381;51.254;15.592;2023-02-24T02:40:43;8.00;80.30
76537;DHT22;65381;51.254;15.592;2023-02-24T02:45:57;8.10;80.20
76537;DHT22;65381;51.254;15.592;2023-02-24T02:48:42;8.10;80.30
76537;DHT22;65381;51.254;15.592;2023-02-24T02:51:15;8.10;80.40
76537;DHT22;65381;51.254;15.592;2023-02-24T02:53:54;8.10;80.40
76537;DHT22;65381;51.254;15.592;2023-02-24T02:56:36;8.10;80.70
76537;DHT22;65381;51.254;15.592;2023-02-24T02:59:05;8.10;80.60
76537;DHT22;65381;51.254;15.592;2023-02-24T03:01:37;8.10;80.70
76537;DHT22;65381;51.254;15.592;2023-02-24T03:04:11;8.10;80.70
76537;DHT22;65381;51.254;15.592;2023-02-24T03:07:01;8.10;80.70
76537;DHT22;65381;51.254;15.592;2023-02-24T03:13:14;8.10;80.70
76537;DHT22;65381;51.254;15.592;2023-02-24T03:15:45;8.10;80.40
76537;DHT22;65381;51.254;15.592;2023-02-24T03:18:22;8.10;80.50
76537;DHT22;65381;51.254;15.592;2023-02-24T03:21:05;8.10;80.70
76537;DHT22;65381;51.254;15.592;2023-02-24T03:23:39;8.00;80.80
76537;DHT22;65381;51.254;15.592;2023-02-24T03:26:27;8.00;80.80
76537;DHT22;65381;51.254;15.592;2023-02-24T03:31:41;8.00;80.90
76537;DHT22;65381;51.254;15.592;2023-02-24T03:34:21;8.00;80.90
76537;DHT22;65381;51.254;15.592;2023-02-24T03:36:55;8.00;80.90
76537;DHT22;65381;51.254;15.592;2023-02-24T03:39:24;8.00;80.90
76537;DHT22;65381;51.254;15.592;2023-02-24T03:42:11;8.00;80.90
76537;DHT22;65381;51.254;15.592;2023-02-24T03:44:41;8.00;80.90
76537;DHT22;65381;51.254;15.592;2023-02-24T03:47:09;8.00;80.90
76537;DHT22;65381;51.254;15.592;2023-02-24T03:49:38;8.00;80.90
76537;DHT22;65381;51.254;15.592;2023-02-24T03:55:53;8.00;81.00
76537;DHT22;65381;51.254;15.592;2023-02-24T04:01:17;8.00;80.90
76537;DHT22;65381;51.254;15.592;2023-02-24T04:04:07;8.00;80.80
76537;DHT22;65381;51.254;15.592;2023-02-24T04:14:57;7.80;80.80
76537;DHT22;65381;51.254;15.592;2023-02-24T04:17:41;7.80;81.00
76537;DHT22;65381;51.254;15.592;2023-02-24T04:20:14;7.90;80.90
76537;DHT22;65381;51.254;15.592;2023-02-24T04:22:56;7.90;80.80
76537;DHT22;65381;51.254;15.592;2023-02-24T04:25:27;7.90;80.70
76537;DHT22;65381;51.254;15.592;2023-02-24T04:27:58;7.80;80.50
76537;DHT22;65381;51.254;15.592;2023-02-24T04:30:34;7.70;80.50
76537;DHT22;65381;51.254;15.592;2023-02-24T04:33:04;7.50;80.70
76537;DHT22;65381;51.254;15.592;2023-02-24T04:35:33;7.50;80.70
76537;DHT22;65381;51.254;15.592;2023-02-24T04:38:01;7.50;80.80
76537;DHT22;65381;51.254;15.592;2023-02-24T04:40:29;7.40;80.80
76537;DHT22;65381;51.254;15.592;2023-02-24T04:42:58;7.40;80.80
76537;DHT22;65381;51.254;15.592;2023-02-24T04:45:28;7.30;80.90
76537;DHT22;65381;51.254;15.592;2023-02-24T04:47:59;7.30;80.90
76537;DHT22;65381;51.254;15.592;2023-02-24T04:50:30;7.20;80.90
76537;DHT22;65381;51.254;15.592;2023-02-24T04:53:08;7.20;80.80
76537;DHT22;65381;51.254;15.592;2023-02-24T04:55:47;7.20;80.80
76537;DHT22;65381;51.254;15.592;2023-02-24T04:58:18;7.10;80.80
76537;DHT22;65381;51.254;15.592;2023-02-24T05:00:49;7.00;80.70
76537;DHT22;65381;51.254;15.592;2023-02-24T05:03:21;6.90;80.70
76537;DHT22;65381;51.254;15.592;2023-02-24T05:05:51;6.80;80.80
76537;DHT22;65381;51.254;15.592;2023-02-24T05:08:25;6.70;80.90
76537;DHT22;65381;51.254;15.592;2023-02-24T05:10:54;6.60;80.90
76537;DHT22;65381;51.254;15.592;2023-02-24T05:13:27;6.50;81.00
76537;DHT22;65381;51.254;15.592;2023-02-24T05:16:07;6.50;81.00
76537;DHT22;65381;51.254;15.592;2023-02-24T05:18:36;6.50;80.90
76537;DHT22;65381;51.254;15.592;2023-02-24T05:21:09;6.40;80.90
76537;DHT22;65381;51.254;15.592;2023-02-24T05:23:57;6.40;81.00
76537;DHT22;65381;51.254;15.592;2023-02-24T05:26:25;6.40;81.00
76537;DHT22;65381;51.254;15.592;2023-02-24T05:28:55;6.40;81.00
76537;DHT22;65381;51.254;15.592;2023-02-24T05:31:25;6.30;81.00
76537;DHT22;65381;51.254;15.592;2023-02-24T05:34:03;6.30;81.00
76537;DHT22;65381;51.254;15.592;2023-02-24T05:36:34;6.30;81.00
76537;DHT22;65381;51.254;15.592;2023-02-24T05:39:03;6.20;81.00
76537;DHT22;65381;51.254;15.592;2023-02-24T05:41:38;6.20;81.10
76537;DHT22;65381;51.254;15.592;2023-02-24T05:44:16;6.20;81.10
76537;DHT22;65381;51.254;15.592;2023-02-24T05:46:51;6.20;81.10
76537;DHT22;65381;51.254;15.592;2023-02-24T05:49:28;6.20;81.10
76537;DHT22;65381;51.254;15.592;2023-02-24T05:52:04;6.20;81.00
76537;DHT22;65381;51.254;15.592;2023-02-24T05:54:40;6.10;81.20
76537;DHT22;65381;51.254;15.592;2023-02-24T05:57:10;6.10;81.20
76537;DHT22;65381;51.254;15.592;2023-02-24T05:59:41;6.10;81.30
76537;DHT22;65381;51.254;15.592;2023-02-24T06:02:14;6.10;81.20
76537;DHT22;65381;51.254;15.592;2023-02-24T06:04:44;6.10;81.30
76537;DHT22;65381;51.254;15.592;2023-02-24T06:07:22;6.00;81.30
76537;DHT22;65381;51.254;15.592;2023-02-24T06:09:57;6.00;81.40
76537;DHT22;65381;51.254;15.592;2023-02-24T06:12:28;6.00;81.40
76537;DHT22;65381;51.254;15.592;2023-02-24T06:14:57;6.10;81.40
76537;DHT22;65381;51.254;15.592;2023-02-24T06:17:26;6.10;81.50
76537;DHT22;65381;51.254;15.592;2023-02-24T06:19:54;6.10;81.50
76537;DHT22;65381;51.254;15.592;2023-02-24T06:22:24;6.10;81.40
76537;DHT22;65381;51.254;15.592;2023-02-24T06:24:53;6.10;81.50
76537;DHT22;65381;51.254;15.592;2023-02-24T06:27:22;6.10;81.50
76537;DHT22;65381;51.254;15.592;2023-02-24T06:29:53;6.10;81.50
76537;DHT22;65381;51.254;15.592;2023-02-24T06:32:23;6.10;81.60
76537;DHT22;65381;51.254;15.592;2023-02-24T06:34:53;6.10;81.60
76537;DHT22;65381;51.254;15.592;2023-02-24T06:37:21;6.10;81.70
76537;DHT22;65381;51.254;15.592;2023-02-24T06:39:52;6.20;81.70
76537;DHT22;65381;51.254;15.592;2023-02-24T06:42:20;6.10;81.50
76537;DHT22;65381;51.254;15.592;2023-02-24T06:44:48;6.10;81.40
76537;DHT22;65381;51.254;15.592;2023-02-24T06:47:17;6.10;81.60
76537;DHT22;65381;51.254;15.592;2023-02-24T06:49:45;6.10;81.70
76537;DHT22;65381;51.254;15.592;2023-02-24T06:52:14;6.10;81.70
76537;DHT22;65381;51.254;15.592;2023-02-24T06:54:47;6.20;81.70
76537;DHT22;65381;51.254;15.592;2023-02-24T06:57:16;6.20;81.80
76537;DHT22;65381;51.254;15.592;2023-02-24T06:59:44;6.10;81.80
76537;DHT22;65381;51.254;15.592;2023-02-24T07:02:12;6.10;81.90
76537;DHT22;65381;51.254;15.592;2023-02-24T07:04:40;6.20;81.90
76537;DHT22;65381;51.254;15.592;2023-02-24T07:07:12;6.20;81.90
76537;DHT22;65381;51.254;15.592;2023-02-24T07:09:44;6.20;81.90
76537;DHT22;65381;51.254;15.592;2023-02-24T07:12:12;6.20;81.90
76537;DHT22;65381;51.254;15.592;2023-02-24T07:14:42;6.20;81.90
76537;DHT22;65381;51.254;15.592;2023-02-24T07:17:10;6.20;81.80
76537;DHT22;65381;51.254;15.592;2023-02-24T07:19:41;6.20;81.80
76537;DHT22;65381;51.254;15.592;2023-02-24T07:22:10;6.20;81.80
76537;DHT22;65381;51.254;15.592;2023-02-24T07:24:41;6.20;81.80
76537;DHT22;65381;51.254;15.592;2023-02-24T07:27:13;6.20;81.80
76537;DHT22;65381;51.254;15.592;2023-02-24T07:29:50;6.10;81.80
76537;DHT22;65381;51.254;15.592;2023-02-24T07:32:20;6.10;81.60
76537;DHT22;65381;51.254;15.592;2023-02-24T07:34:52;6.10;81.70
76537;DHT22;65381;51.254;15.592;2023-02-24T07:37:20;6.10;81.70
76537;DHT22;65381;51.254;15.592;2023-02-24T07:39:51;6.10;81.70
76537;DHT22;65381;51.254;15.592;2023-02-24T07:42:19;6.10;81.60
76537;DHT22;65381;51.254;15.592;2023-02-24T07:44:54;6.10;81.60
76537;DHT22;65381;51.254;15.592;2023-02-24T07:47:22;6.10;81.70
76537;DHT22;65381;51.254;15.592;2023-02-24T07:49:52;6.10;81.70
76537;DHT22;65381;51.254;15.592;2023-02-24T07:52:21;6.10;81.70
76537;DHT22;65381;51.254;15.592;2023-02-24T07:54:50;6.10;81.70
76537;DHT22;65381;51.254;15.592;2023-02-24T07:57:18;6.10;81.60
76537;DHT22;65381;51.254;15.592;2023-02-24T07:59:46;6.10;81.60
76537;DHT22;65381;51.254;15.592;2023-02-24T08:02:15;6.00;81.80
76537;DHT22;65381;51.254;15.592;2023-02-24T08:04:44;6.00;81.90
76537;DHT22;65381;51.254;15.592;2023-02-24T08:07:18;6.00;81.90
76537;DHT22;65381;51.254;15.592;2023-02-24T08:09:52;6.00;82.00
76537;DHT22;65381;51.254;15.592;2023-02-24T08:12:40;6.00;82.00
76537;DHT22;65381;51.254;15.592;2023-02-24T08:15:11;6.00;81.90
76537;DHT22;65381;51.254;15.592;2023-02-24T08:17:56;6.00;81.70
76537;DHT22;65381;51.254;15.592;2023-02-24T08:20:29;6.00;81.70
76537;DHT22;65381;51.254;15.592;2023-02-24T08:23:02;5.90;81.60
76537;DHT22;65381;51.254;15.592;2023-02-24T08:25:33;5.90;81.70
76537;DHT22;65381;51.254;15.592;2023-02-24T08:28:06;5.90;81.80
76537;DHT22;65381;51.254;15.592;2023-02-24T08:30:43;6.00;81.80
76537;DHT22;65381;51.254;15.592;2023-02-24T08:33:19;6.10;82.00
76537;DHT22;65381;51.254;15.592;2023-02-24T08:35:52;6.20;81.90
76537;DHT22;65381;51.254;15.592;2023-02-24T08:38:33;6.30;81.70
76537;DHT22;65381;51.254;15.592;2023-02-24T08:41:19;6.30;81.80
76537;DHT22;65381;51.254;15.592;2023-02-24T08:43:56;6.40;82.00
76537;DHT22;65381;51.254;15.592;2023-02-24T08:46:24;6.70;81.90
76537;DHT22;65381;51.254;15.592;2023-02-24T08:48:55;6.80;81.80
76537;DHT22;65381;51.254;15.592;2023-02-24T08:51:33;7.00;81.60
76537;DHT22;65381;51.254;15.592;2023-02-24T08:54:07;7.10;81.80
76537;DHT22;65381;51.254;15.592;2023-02-24T08:56:38;7.20;81.60
76537;DHT22;65381;51.254;15.592;2023-02-24T08:59:17;7.20;81.20
76537;DHT22;65381;51.254;15.592;2023-02-24T09:02:19;7.10;81.10
76537;DHT22;65381;51.254;15.592;2023-02-24T09:04:54;7.00;81.30
76537;DHT22;65381;51.254;15.592;2023-02-24T09:07:29;7.00;81.10
76537;DHT22;65381;51.254;15.592;2023-02-24T09:10:10;6.80;81.10
76537;DHT22;65381;51.254;15.592;2023-02-24T09:12:39;6.80;81.40
76537;DHT22;65381;51.254;15.592;2023-02-24T09:15:09;6.70;81.30
76537;DHT22;65381;51.254;15.592;2023-02-24T09:17:38;6.60;81.50
76537;DHT22;65381;51.254;15.592;2023-02-24T09:20:12;6.60;81.40
76537;DHT22;65381;51.254;15.592;2023-02-24T09:23:00;6.60;81.50
76537;DHT22;65381;51.254;15.592;2023-02-24T09:25:31;6.60;81.30
76537;DHT22;65381;51.254;15.592;2023-02-24T09:28:18;6.50;80.90
76537;DHT22;65381;51.254;15.592;2023-02-24T09:30:47;6.40;80.90
76537;DHT22;65381;51.254;15.592;2023-02-24T09:33:26;6.20;81.10
76537;DHT22;65381;51.254;15.592;2023-02-24T09:35:57;6.10;81.10
76537;DHT22;65381;51.254;15.592;2023-02-24T09:38:45;6.10;81.40
76537;DHT22;65381;51.254;15.592;2023-02-24T09:41:44;6.00;81.20
76537;DHT22;65381;51.254;15.592;2023-02-24T09:44:58;5.90;80.90
76537;DHT22;65381;51.254;15.592;2023-02-24T09:53:10;5.70;81.40
76537;DHT22;65381;51.254;15.592;2023-02-24T09:55:58;5.80;81.50
76537;DHT22;65381;51.254;15.592;2023-02-24T10:07:09;5.90;81.50
76537;DHT22;65381;51.254;15.592;2023-02-24T10:09:48;6.10;81.70
76537;DHT22;65381;51.254;15.592;2023-02-24T10:12:24;6.10;81.30
76537;DHT22;65381;51.254;15.592;2023-02-24T10:15:01;6.30;81.40
76537;DHT22;65381;51.254;15.592;2023-02-24T10:18:28;6.40;81.50
76537;DHT22;65381;51.254;15.592;2023-02-24T10:24:07;6.60;81.20
76537;DHT22;65381;51.254;15.592;2023-02-24T10:26:55;6.70;81.20
76537;DHT22;65381;51.254;15.592;2023-02-24T10:32:47;7.00;81.60
76537;DHT22;65381;51.254;15.592;2023-02-24T10:35:20;7.20;81.10
76537;DHT22;65381;51.254;15.592;2023-02-24T10:37:48;7.20;80.50
76537;DHT22;65381;51.254;15.592;2023-02-24T10:40:18;7.20;80.70
76537;DHT22;65381;51.254;15.592;2023-02-24T10:43:06;7.10;80.60
76537;DHT22;65381;51.254;15.592;2023-02-24T10:45:39;7.00;80.20
76537;DHT22;65381;51.254;15.592;2023-02-24T10:48:24;6.80;80.00
76537;DHT22;65381;51.254;15.592;2023-02-24T10:51:17;6.70;80.30
76537;DHT22;65381;51.254;15.592;2023-02-24T10:53:49;6.60;80.10
76537;DHT22;65381;51.254;15.592;2023-02-24T10:56:41;6.50;80.40
76537;DHT22;65381;51.254;15.592;2023-02-24T10:59:14;6.60;80.20
76537;DHT22;65381;51.254;15.592;2023-02-24T11:02:20;6.50;80.00
76537;DHT22;65381;51.254;15.592;2023-02-24T11:05:12;6.30;79.60
76537;DHT22;65381;51.254;15.592;2023-02-24T11:08:16;6.20;79.70
76537;DHT22;65381;51.254;15.592;2023-02-24T11:11:11;6.10;80.00
76537;DHT22;65381;51.254;15.592;2023-02-24T11:13:49;6.20;79.90
76537;DHT22;65381;51.254;15.592;2023-02-24T11:16:53;6.20;79.70
76537;DHT22;65381;51.254;15.592;2023-02-24T11:19:57;6.20;79.60
76537;DHT22;65381;51.254;15.592;2023-02-24T11:22:38;6.10;79.20
76537;DHT22;65381;51.254;15.592;2023-02-24T11:28:03;6.00;79.20
76537;DHT22;65381;51.254;15.592;2023-02-24T11:33:32;6.00;79.40
76537;DHT22;65381;51.254;15.592;2023-02-24T11:36:05;6.10;79.30
76537;DHT22;65381;51.254;15.592;2023-02-24T11:38:44;6.10;79.30
76537;DHT22;65381;51.254;15.592;2023-02-24T11:43:55;6.30;79.30
76537;DHT22;65381;51.254;15.592;2023-02-24T11:46:38;6.30;78.90
76537;DHT22;65381;51.254;15.592;2023-02-24T11:52:35;6.30;78.70
76537;DHT22;65381;51.254;15.592;2023-02-24T11:55:15;6.30;78.10
76537;DHT22;65381;51.254;15.592;2023-02-24T11:57:49;6.20;78.30
76537;DHT22;65381;51.254;15.592;2023-02-24T12:00:23;6.30;78.20
76537;DHT22;65381;51.254;15.592;2023-02-24T12:03:16;6.30;78.20
76537;DHT22;65381;51.254;15.592;2023-02-24T12:05:53;6.50;79.30
76537;DHT22;65381;51.254;15.592;2023-02-24T12:08:36;7.00;79.40
76537;DHT22;65381;51.254;15.592;2023-02-24T12:16:40;7.80;77.50
76537;DHT22;65381;51.254;15.592;2023-02-24T12:21:58;7.80;77.20
76537;DHT22;65381;51.254;15.592;2023-02-24T12:24:34;7.80;77.40
76537;DHT22;65381;51.254;15.592;2023-02-24T12:36:16;7.50;77.10
76537;DHT22;65381;51.254;15.592;2023-02-24T12:39:20;7.30;77.20
76537;DHT22;65381;51.254;15.592;2023-02-24T12:51:00;7.20;77.20
76537;DHT22;65381;51.254;15.592;2023-02-24T12:56:23;7.00;77.50
76537;DHT22;65381;51.254;15.592;2023-02-24T12:58:57;7.00;77.50
76537;DHT22;65381;51.254;15.592;2023-02-24T13:01:40;7.00;77.30
76537;DHT22;65381;51.254;15.592;2023-02-24T13:04:28;7.00;77.60
76537;DHT22;65381;51.254;15.592;2023-02-24T13:12:35;7.60;77.80
76537;DHT22;65381;51.254;15.592;2023-02-24T13:15:20;7.80;77.80
76537;DHT22;65381;51.254;15.592;2023-02-24T13:17:50;8.00;77.70
76537;DHT22;65381;51.254;15.592;2023-02-24T13:20:34;8.10;77.70
76537;DHT22;65381;51.254;15.592;2023-02-24T13:23:20;8.10;77.60
76537;DHT22;65381;51.254;15.592;2023-02-24T13:25:51;8.30;77.40
76537;DHT22;65381;51.254;15.592;2023-02-24T13:28:33;8.30;77.40
76537;DHT22;65381;51.254;15.592;2023-02-24T13:31:11;8.30;77.20
76537;DHT22;65381;51.254;15.592;2023-02-24T13:33:42;8.20;77.10
76537;DHT22;65381;51.254;15.592;2023-02-24T13:36:18;8.10;77.00
76537;DHT22;65381;51.254;15.592;2023-02-24T13:39:04;8.00;76.50
76537;DHT22;65381;51.254;15.592;2023-02-24T13:41:38;7.50;76.60
76537;DHT22;65381;51.254;15.592;2023-02-24T13:44:27;7.30;76.80
76537;DHT22;65381;51.254;15.592;2023-02-24T13:58:15;6.80;77.20
76537;DHT22;65381;51.254;15.592;2023-02-24T14:00:59;6.70;77.10
76537;DHT22;65381;51.254;15.592;2023-02-24T14:03:28;6.60;77.20
76537;DHT22;65381;51.254;15.592;2023-02-24T14:05:59;6.60;77.10
76537;DHT22;65381;51.254;15.592;2023-02-24T14:08:48;6.50;77.10
76537;DHT22;65381;51.254;15.592;2023-02-24T14:11:17;6.50;77.00
76537;DHT22;65381;51.254;15.592;2023-02-24T14:13:50;6.40;77.00
76537;DHT22;65381;51.254;15.592;2023-02-24T14:16:26;6.40;77.00
76537;DHT22;65381;51.254;15.592;2023-02-24T14:19:00;6.40;77.00
76537;DHT22;65381;51.254;15.592;2023-02-24T14:21:32;6.40;77.10
76537;DHT22;65381;51.254;15.592;2023-02-24T14:24:03;6.30;76.80
76537;DHT22;65381;51.254;15.592;2023-02-24T14:26:46;6.30;76.80
76537;DHT22;65381;51.254;15.592;2023-02-24T14:29:20;6.20;76.90
76537;DHT22;65381;51.254;15.592;2023-02-24T14:31:51;6.20;77.10
76537;DHT22;65381;51.254;15.592;2023-02-24T14:34:23;6.20;77.10
76537;DHT22;65381;51.254;15.592;2023-02-24T14:36:56;6.20;76.80
76537;DHT22;65381;51.254;15.592;2023-02-24T14:39:27;6.10;76.80
76537;DHT22;65381;51.254;15.592;2023-02-24T14:42:11;6.00;76.90
76537;DHT22;65381;51.254;15.592;2023-02-24T14:44:44;6.00;77.00
76537;DHT22;65381;51.254;15.592;2023-02-24T14:47:14;6.00;77.00
76537;DHT22;65381;51.254;15.592;2023-02-24T14:49:59;6.00;77.00
76537;DHT22;65381;51.254;15.592;2023-02-24T14:52:48;5.90;76.80
76537;DHT22;65381;51.254;15.592;2023-02-24T14:55:21;5.80;76.90
76537;DHT22;65381;51.254;15.592;2023-02-24T14:58:26;5.80;76.90
76537;DHT22;65381;51.254;15.592;2023-02-24T15:01:04;5.70;76.90
76537;DHT22;65381;51.254;15.592;2023-02-24T15:03:44;5.70;76.80
76537;DHT22;65381;51.254;15.592;2023-02-24T15:06:23;5.70;76.80
76537;DHT22;65381;51.254;15.592;2023-02-24T15:09:13;5.70;76.70
76537;DHT22;65381;51.254;15.592;2023-02-24T15:11:44;5.60;76.90
76537;DHT22;65381;51.254;15.592;2023-02-24T15:14:22;5.60;76.90
76537;DHT22;65381;51.254;15.592;2023-02-24T15:16:57;5.70;76.90
76537;DHT22;65381;51.254;15.592;2023-02-24T15:19:32;5.70;76.70
76537;DHT22;65381;51.254;15.592;2023-02-24T15:22:27;5.70;76.70
76537;DHT22;65381;51.254;15.592;2023-02-24T15:27:53;5.60;76.80
76537;DHT22;65381;51.254;15.592;2023-02-24T15:33:02;5.60;76.50
76537;DHT22;65381;51.254;15.592;2023-02-24T15:35:31;5.60;76.60
76537;DHT22;65381;51.254;15.592;2023-02-24T15:38:02;5.60;76.50
76537;DHT22;65381;51.254;15.592;2023-02-24T15:40:31;5.60;76.60
76537;DHT22;65381;51.254;15.592;2023-02-24T15:43:08;5.50;76.60
76537;DHT22;65381;51.254;15.592;2023-02-24T15:45:38;5.50;76.50
76537;DHT22;65381;51.254;15.592;2023-02-24T15:48:21;5.50;76.70
76537;DHT22;65381;51.254;15.592;2023-02-24T15:50:52;5.50;76.70
76537;DHT22;65381;51.254;15.592;2023-02-24T15:53:21;5.50;76.60
76537;DHT22;65381;51.254;15.592;2023-02-24T15:55:50;5.50;76.70
76537;DHT22;65381;51.254;15.592;2023-02-24T15:58:20;5.50;76.70
76537;DHT22;65381;51.254;15.592;2023-02-24T16:00:49;5.50;76.70
76537;DHT22;65381;51.254;15.592;2023-02-24T16:03:20;5.50;76.60
76537;DHT22;65381;51.254;15.592;2023-02-24T16:05:48;5.50;76.70
76537;DHT22;65381;51.254;15.592;2023-02-24T16:08:19;5.50;76.60
76537;DHT22;65381;51.254;15.592;2023-02-24T16:10:49;5.50;76.70
76537;DHT22;65381;51.254;15.592;2023-02-24T16:13:22;5.50;76.60
76537;DHT22;65381;51.254;15.592;2023-02-24T16:15:51;5.50;76.60
76537;DHT22;65381;51.254;15.592;2023-02-24T16:18:22;5.50;76.70
76537;DHT22;65381;51.254;15.592;2023-02-24T16:20:52;5.50;76.80
76537;DHT22;65381;51.254;15.592;2023-02-24T16:23:25;5.50;76.80
76537;DHT22;65381;51.254;15.592;2023-02-24T16:25:56;5.50;76.70
76537;DHT22;65381;51.254;15.592;2023-02-24T16:28:26;5.40;76.70
76537;DHT22;65381;51.254;15.592;2023-02-24T16:30:54;5.30;76.80
76537;DHT22;65381;51.254;15.592;2023-02-24T16:33:23;5.30;76.80
76537;DHT22;65381;51.254;15.592;2023-02-24T16:35:53;5.40;76.80
76537;DHT22;65381;51.254;15.592;2023-02-24T16:38:23;5.30;76.80
76537;DHT22;65381;51.254;15.592;2023-02-24T16:40:54;5.30;76.90
76537;DHT22;65381;51.254;15.592;2023-02-24T16:43:24;5.30;76.90
76537;DHT22;65381;51.254;15.592;2023-02-24T16:45:53;5.30;76.80
76537;DHT22;65381;51.254;15.592;2023-02-24T16:48:24;5.30;76.90
76537;DHT22;65381;51.254;15.592;2023-02-24T16:50:55;5.30;76.90
76537;DHT22;65381;51.254;15.592;2023-02-24T16:53:24;5.40;76.80
76537;DHT22;65381;51.254;15.592;2023-02-24T16:55:53;5.30;76.90
76537;DHT22;65381;51.254;15.592;2023-02-24T16:58:22;5.30;76.90
76537;DHT22;65381;51.254;15.592;2023-02-24T17:00:55;5.30;76.90
76537;DHT22;65381;51.254;15.592;2023-02-24T17:03:46;5.30;76.80
76537;DHT22;65381;51.254;15.592;2023-02-24T17:06:15;5.30;76.80
76537;DHT22;65381;51.254;15.592;2023-02-24T17:08:45;5.30;76.80
76537;DHT22;65381;51.254;15.592;2023-02-24T17:11:17;5.30;76.90
76537;DHT22;65381;51.254;15.592;2023-02-24T17:13:48;5.30;76.90
76537;DHT22;65381;51.254;15.592;2023-02-24T17:16:16;5.30;77.00
76537;DHT22;65381;51.254;15.592;2023-02-24T17:18:45;5.40;77.10
76537;DHT22;65381;51.254;15.592;2023-02-24T17:21:14;5.50;77.00
76537;DHT22;65381;51.254;15.592;2023-02-24T17:23:45;5.50;77.00
76537;DHT22;65381;51.254;15.592;2023-02-24T17:26:15;5.50;77.10
76537;DHT22;65381;51.254;15.592;2023-02-24T17:28:44;5.50;76.90
76537;DHT22;65381;51.254;15.592;2023-02-24T17:31:13;5.50;76.90
76537;DHT22;65381;51.254;15.592;2023-02-24T17:33:42;5.40;77.00
76537;DHT22;65381;51.254;15.592;2023-02-24T17:36:11;5.40;77.10
76537;DHT22;65381;51.254;15.592;2023-02-24T17:38:40;5.40;77.10
76537;DHT22;65381;51.254;15.592;2023-02-24T17:41:08;5.40;77.10
76537;DHT22;65381;51.254;15.592;2023-02-24T17:43:38;5.40;77.10
76537;DHT22;65381;51.254;15.592;2023-02-24T17:46:08;5.30;77.00
76537;DHT22;65381;51.254;15.592;2023-02-24T17:48:37;5.30;77.00
76537;DHT22;65381;51.254;15.592;2023-02-24T17:51:27;5.30;77.00
76537;DHT22;65381;51.254;15.592;2023-02-24T17:53:57;5.30;77.00
76537;DHT22;65381;51.254;15.592;2023-02-24T17:56:25;5.30;77.00
76537;DHT22;65381;51.254;15.592;2023-02-24T17:58:57;5.20;77.00
76537;DHT22;65381;51.254;15.592;2023-02-24T18:01:28;5.30;77.00
76537;DHT22;65381;51.254;15.592;2023-02-24T18:03:59;5.20;77.00
76537;DHT22;65381;51.254;15.592;2023-02-24T18:06:28;5.20;77.10
76537;DHT22;65381;51.254;15.592;2023-02-24T18:08:57;5.30;77.10
76537;DHT22;65381;51.254;15.592;2023-02-24T18:11:25;5.30;77.00
76537;DHT22;65381;51.254;15.592;2023-02-24T18:13:58;5.30;77.00
76537;DHT22;65381;51.254;15.592;2023-02-24T18:16:27;5.30;77.00
76537;DHT22;65381;51.254;15.592;2023-02-24T18:18:59;5.20;77.00
76537;DHT22;65381;51.254;15.592;2023-02-24T18:21:30;5.10;76.90
76537;DHT22;65381;51.254;15.592;2023-02-24T18:23:59;5.00;76.90
76537;DHT22;65381;51.254;15.592;2023-02-24T18:26:31;4.90;76.90